Time;durP1;ratioP1;P1;durP2;ratioP2;P2;SDS_P1;SDS_P2;PMS_P1;PMS_P2;Temp;Humidity;BMP_temperature;BMP_pressure;BME280_temperature;BME280_humidity;BME280_pressure;Samples;Min_cycle;Max_cycle;Signal;HPM_P1;HPM_P2
2022/08/25 00:01:29;;;;;;;13.82;12.32;;;;;;;;;;5055829;28;20043;-74
2022/08/25 00:04:16;;;;;;;15.38;12.35;;;;;;;;;;5088520;28;20058;-74
2022/08/25 00:07:03;;;;;;;13.85;11.82;;;;;;;;;;5082135;28;20043;-74
2022/08/25 00:09:50;;;;;;;14.68;12.60;;;;;;;;;;5073439;28;20183;-74
2022/08/25 00:12:36;;;;;;;14.35;12.85;;;;;;;;;;5089036;28;20040;-74
2022/08/25 00:15:23;;;;;;;14.02;11.95;;;;;;;;;;5070479;28;20151;-74
2022/08/25 00:18:09;;;;;;;15.27;11.93;;;;;;;;;;5088061;28;20040;-74
2022/08/25 00:20:56;;;;;;;12.90;11.65;;;;;;;;;;5086160;28;20119;-74
2022/08/25 00:23:42;;;;;;;14.10;12.65;;;;;;;;;;5085676;28;20136;-73
2022/08/25 00:26:29;;;;;;;14.10;12.60;;;;;;;;;;5088135;28;20050;-74
2022/08/25 00:29:16;;;;;;;15.70;13.30;;;;;;;;;;5085849;28;20123;-74
2022/08/25 00:32:04;;;;;;;15.40;11.70;;;;;;;;;;5086247;28;20050;-74
2022/08/25 00:34:50;;;;;;;14.02;12.07;;;;;;;;;;5069120;28;20051;-74
2022/08/25 00:37:37;;;;;;;17.75;13.15;;;;;;;;;;5068800;28;20105;-74
2022/08/25 00:40:24;;;;;;;14.20;12.48;;;;;;;;;;5094302;28;20066;-73
2022/08/25 00:43:11;;;;;;;13.10;11.68;;;;;;;;;;5079466;28;20052;-74
2022/08/25 00:45:57;;;;;;;13.60;11.52;;;;;;;;;;5056115;28;20048;-74
2022/08/25 00:48:47;;;;;;;13.27;11.90;;;;;;;;;;5058871;28;20056;-74
2022/08/25 00:51:39;;;;;;;12.65;11.10;;;;;;;;;;5102238;28;20032;-74
2022/08/25 00:54:34;;;;;;;13.02;11.63;;;;;;;;;;5090214;28;20416;-74
2022/08/25 00:57:26;;;;;;;14.68;11.27;;;;;;;;;;5089561;28;20436;-74
2022/08/25 01:00:21;;;;;;;16.15;11.63;;;;;;;;;;5074853;28;20398;-74
2022/08/25 01:03:07;;;;;;;15.77;11.57;;;;;;;;;;5074063;28;20108;-74
2022/08/25 01:05:54;;;;;;;12.40;11.13;;;;;;;;;;5081485;28;20048;-73
2022/08/25 01:08:40;;;;;;;12.80;11.02;;;;;;;;;;5089662;28;20472;-74
2022/08/25 01:11:27;;;;;;;14.43;12.85;;;;;;;;;;5092318;28;20040;-74
2022/08/25 01:14:15;;;;;;;13.27;11.45;;;;;;;;;;5089248;28;20497;-74
2022/08/25 01:17:02;;;;;;;15.75;12.13;;;;;;;;;;5072821;28;20052;-74
2022/08/25 01:19:48;;;;;;;12.20;9.93;;;;;;;;;;5092048;28;20048;-74
2022/08/25 01:22:36;;;;;;;13.93;10.85;;;;;;;;;;5088841;28;20075;-74
2022/08/25 01:25:41;;;;;;;13.13;11.75;;;;;;;;;;5088099;28;20093;-74
2022/08/25 01:28:28;;;;;;;14.90;11.85;;;;;;;;;;5080185;28;20418;-74
2022/08/25 01:31:14;;;;;;;17.05;12.65;;;;;;;;;;5091777;28;20063;-74
2022/08/25 01:34:00;;;;;;;14.38;11.68;;;;;;;;;;5057618;28;20566;-74
2022/08/25 01:36:47;;;;;;;14.18;10.18;;;;;;;;;;5063552;28;20075;-74
2022/08/25 01:39:37;;;;;;;15.57;10.82;;;;;;;;;;5073542;28;20051;-74
2022/08/25 01:42:33;;;;;;;13.27;10.18;;;;;;;;;;5059225;28;20047;-74
2022/08/25 01:45:20;;;;;;;17.00;11.00;;;;;;;;;;5090630;28;20046;-74
2022/08/25 01:48:07;;;;;;;13.98;10.02;;;;;;;;;;5071844;28;20066;-74
2022/08/25 01:50:53;;;;;;;12.27;10.98;;;;;;;;;;5087846;28;20573;-74
2022/08/25 01:53:40;;;;;;;16.40;11.15;;;;;;;;;;5086299;28;20551;-74
2022/08/25 01:56:26;;;;;;;14.95;9.65;;;;;;;;;;5087332;28;20076;-74
2022/08/25 01:59:20;;;;;;;16.35;10.50;;;;;;;;;;5087186;28;20459;-74
2022/08/25 02:02:06;;;;;;;10.55;9.52;;;;;;;;;;5082198;28;20084;-74
2022/08/25 02:04:53;;;;;;;13.02;9.95;;;;;;;;;;5058089;28;20213;-74
2022/08/25 02:07:41;;;;;;;11.27;8.80;;;;;;;;;;5089050;28;20083;-73
2022/08/25 02:10:27;;;;;;;12.00;8.77;;;;;;;;;;5084898;28;20054;-74
2022/08/25 02:13:14;;;;;;;11.82;8.18;;;;;;;;;;5089698;28;20036;-74
2022/08/25 02:16:01;;;;;;;11.82;9.45;;;;;;;;;;5072532;28;20069;-74
2022/08/25 02:18:47;;;;;;;10.38;9.35;;;;;;;;;;5090366;28;20509;-74
2022/08/25 02:21:34;;;;;;;11.35;9.20;;;;;;;;;;5069317;28;20082;-74
2022/08/25 02:24:20;;;;;;;11.80;9.48;;;;;;;;;;5090309;28;20044;-74
2022/08/25 02:27:08;;;;;;;12.07;9.27;;;;;;;;;;5090197;28;20055;-74
2022/08/25 02:29:55;;;;;;;10.55;8.30;;;;;;;;;;5065311;28;20135;-74
2022/08/25 02:32:41;;;;;;;12.93;7.50;;;;;;;;;;5088049;28;20056;-74
2022/08/25 02:35:28;;;;;;;9.65;7.35;;;;;;;;;;5089613;28;20071;-74
2022/08/25 02:38:15;;;;;;;12.43;6.68;;;;;;;;;;5074926;28;20041;-74
2022/08/25 02:41:08;;;;;;;7.47;6.68;;;;;;;;;;5077499;28;20076;-74
2022/08/25 02:43:54;;;;;;;;;;;;;;;;;;5072279;28;20052;-74
2022/08/25 02:46:40;;;;;;;9.48;6.72;;;;;;;;;;5070557;28;19916;-74
2022/08/25 02:49:27;;;;;;;11.55;7.88;;;;;;;;;;5061861;28;20048;-74
2022/08/25 02:52:14;;;;;;;9.43;7.40;;;;;;;;;;5050560;28;20094;-74
2022/08/25 02:55:03;;;;;;;7.97;6.18;;;;;;;;;;5067941;28;20083;-74
2022/08/25 02:57:50;;;;;;;9.50;5.63;;;;;;;;;;5050412;28;20406;-74
2022/08/25 03:00:36;;;;;;;8.68;6.78;;;;;;;;;;5069050;28;20115;-74
2022/08/25 03:03:23;;;;;;;10.63;7.10;;;;;;;;;;5051373;28;20502;-74
2022/08/25 03:06:11;;;;;;;9.38;6.50;;;;;;;;;;5067394;28;20398;-74
2022/08/25 03:08:57;;;;;;;5.40;4.75;;;;;;;;;;5044148;28;20053;-74
2022/08/25 03:11:45;;;;;;;7.28;5.47;;;;;;;;;;5054052;28;20402;-74
2022/08/25 03:14:32;;;;;;;7.03;5.57;;;;;;;;;;5068816;28;20510;-74
2022/08/25 03:17:18;;;;;;;8.10;5.20;;;;;;;;;;5063679;28;20052;-74
2022/08/25 03:20:05;;;;;;;8.48;5.68;;;;;;;;;;5067625;28;20043;-74
2022/08/25 03:22:52;;;;;;;6.45;4.70;;;;;;;;;;5067733;28;20052;-74
2022/08/25 03:28:44;;;;;;;6.15;5.50;;;;;;;;;;5041658;28;20421;-74
2022/08/25 03:31:31;;;;;;;5.10;4.47;;;;;;;;;;5068120;28;20044;-74
2022/08/25 03:34:19;;;;;;;9.13;4.55;;;;;;;;;;5049479;28;20049;-74
2022/08/25 03:37:07;;;;;;;9.02;4.72;;;;;;;;;;5065563;28;20516;-74
2022/08/25 03:39:53;;;;;;;8.13;5.10;;;;;;;;;;5065589;28;20048;-74
2022/08/25 03:42:41;;;;;;;5.70;4.45;;;;;;;;;;5062090;28;20048;-74
2022/08/25 03:45:27;;;;;;;11.15;5.88;;;;;;;;;;5048791;28;20048;-74
2022/08/25 03:48:14;;;;;;;6.97;4.53;;;;;;;;;;5061252;28;20051;-74
2022/08/25 03:51:01;;;;;;;8.60;4.45;;;;;;;;;;5050109;28;20078;-74
2022/08/25 03:53:47;;;;;;;7.50;4.35;;;;;;;;;;5067022;28;20048;-74
2022/08/25 03:56:34;;;;;;;8.05;4.00;;;;;;;;;;5048196;28;20051;-74
2022/08/25 03:59:21;;;;;;;4.82;3.75;;;;;;;;;;5067582;28;20043;-74
2022/08/25 04:02:07;;;;;;;4.97;3.97;;;;;;;;;;5054342;28;20148;-74
2022/08/25 04:04:54;;;;;;;4.70;3.88;;;;;;;;;;5067589;28;20464;-75
2022/08/25 04:07:40;;;;;;;7.10;3.80;;;;;;;;;;5066280;28;20235;-74
2022/08/25 04:10:27;;;;;;;6.47;4.55;;;;;;;;;;5050583;28;20482;-74
2022/08/25 04:13:13;;;;;;;6.78;4.93;;;;;;;;;;5027240;28;20048;-74
2022/08/25 04:16:00;;;;;;;6.40;4.18;;;;;;;;;;5049983;28;20044;-74
2022/08/25 04:18:47;;;;;;;5.28;4.47;;;;;;;;;;5068984;28;20123;-74
2022/08/25 04:21:34;;;;;;;7.00;4.22;;;;;;;;;;5067809;28;20040;-74
2022/08/25 04:24:20;;;;;;;5.53;3.80;;;;;;;;;;5056883;28;20068;-74
2022/08/25 04:27:07;;;;;;;6.35;4.25;;;;;;;;;;5061280;28;20142;-74
2022/08/25 04:29:53;;;;;;;5.53;4.15;;;;;;;;;;5051485;28;20052;-73
2022/08/25 04:32:40;;;;;;;7.30;4.63;;;;;;;;;;5054032;28;20052;-74
2022/08/25 04:35:26;;;;;;;8.82;3.85;;;;;;;;;;5062239;28;20072;-74
2022/08/25 04:38:13;;;;;;;9.32;4.53;;;;;;;;;;5072387;28;20607;-74
2022/08/25 04:41:00;;;;;;;4.88;3.70;;;;;;;;;;5045431;28;20079;-74
2022/08/25 04:43:47;;;;;;;7.65;3.95;;;;;;;;;;5072408;28;20044;-74
2022/08/25 04:46:34;;;;;;;5.40;4.03;;;;;;;;;;5056307;28;20044;-73
2022/08/25 04:49:20;;;;;;;7.22;3.63;;;;;;;;;;5054588;28;20055;-74
2022/08/25 04:52:07;;;;;;;5.60;3.83;;;;;;;;;;5059532;28;20036;-74
2022/08/25 04:54:54;;;;;;;7.88;3.75;;;;;;;;;;5083768;28;20044;-74
2022/08/25 04:57:40;;;;;;;4.55;3.58;;;;;;;;;;5091971;28;20036;-74
2022/08/25 05:00:27;;;;;;;5.65;4.07;;;;;;;;;;5072058;28;20047;-74
2022/08/25 05:03:13;;;;;;;5.68;3.78;;;;;;;;;;5070123;28;20502;-74
2022/08/25 05:06:00;;;;;;;5.47;3.75;;;;;;;;;;5090582;28;20051;-74
2022/08/25 05:08:46;;;;;;;6.35;4.00;;;;;;;;;;5087587;28;20143;-74
2022/08/25 05:11:33;;;;;;;6.80;4.95;;;;;;;;;;5071031;28;20524;-74
2022/08/25 05:14:21;;;;;;;6.88;4.13;;;;;;;;;;5091361;28;20052;-73
2022/08/25 05:17:07;;;;;;;6.53;4.40;;;;;;;;;;5072725;28;20430;-74
2022/08/25 05:19:54;;;;;;;7.13;4.97;;;;;;;;;;5085747;28;20049;-73
2022/08/25 05:22:43;;;;;;;6.50;4.30;;;;;;;;;;5088018;28;20059;-74
2022/08/25 05:25:30;;;;;;;7.35;4.68;;;;;;;;;;5088252;28;20036;-74
2022/08/25 05:28:16;;;;;;;5.50;4.38;;;;;;;;;;5075809;28;20446;-74
2022/08/25 05:31:03;;;;;;;7.65;4.15;;;;;;;;;;5089247;28;20044;-74
2022/08/25 05:33:50;;;;;;;7.05;4.20;;;;;;;;;;5071945;28;20044;-74
2022/08/25 05:36:41;;;;;;;7.78;4.53;;;;;;;;;;5059960;28;20045;-74
2022/08/25 05:39:31;;;;;;;7.72;4.07;;;;;;;;;;5083528;28;20036;-72
2022/08/25 05:42:18;;;;;;;6.63;4.28;;;;;;;;;;5071104;28;20438;-72
2022/08/25 05:45:05;;;;;;;7.88;4.57;;;;;;;;;;5069386;28;20401;-72
2022/08/25 05:47:51;;;;;;;7.00;4.25;;;;;;;;;;5073515;28;20421;-72
2022/08/25 05:50:38;;;;;;;6.47;4.32;;;;;;;;;;5058045;28;20411;-72
2022/08/25 05:53:24;;;;;;;8.40;4.25;;;;;;;;;;5061351;28;20044;-72
2022/08/25 05:56:12;;;;;;;5.10;3.72;;;;;;;;;;5065462;28;20052;-72
2022/08/25 05:58:59;;;;;;;9.55;4.53;;;;;;;;;;5050856;28;20590;-72
2022/08/25 06:04:50;;;;;;;7.43;4.03;;;;;;;;;;5070146;28;20054;-73
2022/08/25 06:07:37;;;;;;;6.22;4.45;;;;;;;;;;5044630;28;20127;-73
2022/08/25 06:10:23;;;;;;;5.15;4.07;;;;;;;;;;5071749;28;20079;-73
2022/08/25 06:13:10;;;;;;;6.03;3.58;;;;;;;;;;5090471;28;20131;-73
2022/08/25 06:15:57;;;;;;;6.57;3.50;;;;;;;;;;5090450;28;20070;-72
2022/08/25 06:18:44;;;;;;;7.68;4.22;;;;;;;;;;5087443;28;20517;-73
2022/08/25 06:21:31;;;;;;;12.38;4.90;;;;;;;;;;5079842;28;20041;-73
2022/08/25 06:24:18;;;;;;;6.50;4.30;;;;;;;;;;5062969;28;20150;-73
2022/08/25 06:27:04;;;;;;;9.20;3.85;;;;;;;;;;5055693;28;20043;-73
2022/08/25 06:29:51;;;;;;;4.38;3.70;;;;;;;;;;5087083;28;20532;-73
2022/08/25 06:32:39;;;;;;;7.90;4.70;;;;;;;;;;5069155;28;20055;-73
2022/08/25 06:35:26;;;;;;;9.38;3.97;;;;;;;;;;5069433;28;20085;-72
2022/08/25 06:38:13;;;;;;;6.78;4.03;;;;;;;;;;5085639;28;20050;-73
2022/08/25 06:41:04;;;;;;;10.05;5.07;;;;;;;;;;5056230;28;20044;-73
2022/08/25 06:43:50;;;;;;;5.28;4.25;;;;;;;;;;5067661;28;20087;-73
2022/08/25 06:46:37;;;;;;;8.93;3.75;;;;;;;;;;5069148;28;20344;-73
2022/08/25 06:49:26;;;;;;;6.70;4.18;;;;;;;;;;5047095;28;20052;-72
2022/08/25 06:52:13;;;;;;;7.57;4.57;;;;;;;;;;5069489;28;20054;-73
2022/08/25 06:55:00;;;;;;;8.77;4.65;;;;;;;;;;5076697;28;20546;-72
2022/08/25 06:57:46;;;;;;;10.70;4.32;;;;;;;;;;5071128;28;20050;-72
2022/08/25 07:00:33;;;;;;;8.55;5.03;;;;;;;;;;5087833;28;20047;-72
2022/08/25 07:03:19;;;;;;;5.05;3.95;;;;;;;;;;5048486;28;20136;-72
2022/08/25 07:06:06;;;;;;;8.77;4.22;;;;;;;;;;5086316;28;20039;-72
2022/08/25 07:08:52;;;;;;;7.85;3.92;;;;;;;;;;5085831;28;20109;-72
2022/08/25 07:11:42;;;;;;;6.43;3.60;;;;;;;;;;5086215;28;20036;-72
2022/08/25 07:14:29;;;;;;;7.40;4.22;;;;;;;;;;5089261;28;20069;-72
2022/08/25 07:17:16;;;;;;;10.48;4.28;;;;;;;;;;5066464;28;20383;-72
2022/08/25 07:20:02;;;;;;;8.90;4.35;;;;;;;;;;5058255;28;20397;-72
2022/08/25 07:22:49;;;;;;;5.13;3.92;;;;;;;;;;5068735;28;20443;-72
2022/08/25 07:25:35;;;;;;;7.20;4.00;;;;;;;;;;5088832;28;20052;-72
2022/08/25 07:28:22;;;;;;;12.15;4.63;;;;;;;;;;5089271;28;20029;-72
2022/08/25 07:31:09;;;;;;;7.60;3.90;;;;;;;;;;5088826;28;20076;-72
2022/08/25 07:37:02;;;;;;;7.07;4.28;;;;;;;;;;5070447;28;20040;-72
2022/08/25 07:39:49;;;;;;;4.88;3.28;;;;;;;;;;5087678;28;20036;-72
2022/08/25 07:42:36;;;;;;;8.32;4.95;;;;;;;;;;5087731;28;20124;-72
2022/08/25 07:45:29;;;;;;;6.35;3.60;;;;;;;;;;5088428;28;20472;-72
2022/08/25 07:48:18;;;;;;;8.35;4.13;;;;;;;;;;5069492;28;20093;-72
2022/08/25 07:51:08;;;;;;;6.30;3.95;;;;;;;;;;5048159;28;20068;-72
2022/08/25 07:53:55;;;;;;;6.70;3.53;;;;;;;;;;5064464;28;20062;-71
2022/08/25 07:56:42;;;;;;;11.80;4.30;;;;;;;;;;5065895;28;20086;-72
2022/08/25 07:59:29;;;;;;;5.50;4.28;;;;;;;;;;5049915;28;20051;-72
2022/08/25 08:02:16;;;;;;;6.68;3.83;;;;;;;;;;5068642;28;20044;-72
2022/08/25 08:05:02;;;;;;;5.35;3.85;;;;;;;;;;5068724;28;20555;-72
2022/08/25 08:07:49;;;;;;;8.13;3.97;;;;;;;;;;5064490;28;20043;-72
2022/08/25 08:10:38;;;;;;;4.57;3.58;;;;;;;;;;5039020;28;20442;-72
2022/08/25 08:13:25;;;;;;;13.15;3.83;;;;;;;;;;5053230;28;20048;-71
2022/08/25 08:16:12;;;;;;;7.78;3.58;;;;;;;;;;5047505;28;20072;-72
2022/08/25 08:18:59;;;;;;;7.97;3.50;;;;;;;;;;5063749;28;20320;-72
2022/08/25 08:21:47;;;;;;;7.55;4.57;;;;;;;;;;5066264;28;20040;-72
2022/08/25 08:24:37;;;;;;;5.32;3.53;;;;;;;;;;5065300;28;20040;-72
2022/08/25 08:27:24;;;;;;;7.80;3.78;;;;;;;;;;5066365;28;20486;-72
2022/08/25 08:30:11;;;;;;;5.63;3.05;;;;;;;;;;5063011;28;20458;-72
2022/08/25 08:32:57;;;;;;;4.93;3.20;;;;;;;;;;5049229;28;20049;-72
2022/08/25 08:35:43;;;;;;;7.57;3.30;;;;;;;;;;5061545;28;20049;-72
2022/08/25 08:38:30;;;;;;;8.63;3.47;;;;;;;;;;5045887;28;20045;-72
2022/08/25 08:44:38;;;;;;;7.22;3.97;;;;;;;;;;5067459;28;20127;-72
2022/08/25 08:47:30;;;;;;;7.55;3.15;;;;;;;;;;5064879;28;20041;-71
2022/08/25 08:50:29;;;;;;;3.65;3.13;;;;;;;;;;5080612;28;20525;-72
2022/08/25 08:53:19;;;;;;;3.70;2.85;;;;;;;;;;5077897;28;20045;-72
2022/08/25 08:56:08;;;;;;;7.63;3.42;;;;;;;;;;5056692;28;20043;-72
2022/08/25 08:58:57;;;;;;;4.90;3.38;;;;;;;;;;5086523;28;20040;-71
2022/08/25 09:01:48;;;;;;;9.88;3.95;;;;;;;;;;5086305;28;20528;-71
2022/08/25 09:04:40;;;;;;;6.30;3.55;;;;;;;;;;5072317;28;20042;-71
2022/08/25 09:07:32;;;;;;;7.28;3.03;;;;;;;;;;5072531;28;20036;-72
2022/08/25 09:10:19;;;;;;;4.22;2.60;;;;;;;;;;5066121;28;20039;-71
2022/08/25 09:13:32;;;;;;;4.63;2.95;;;;;;;;;;5073848;28;20048;-71
2022/08/25 09:19:48;;;;;;;6.57;3.33;;;;;;;;;;5070632;28;20040;-71
2022/08/25 09:22:54;;;;;;;7.88;3.00;;;;;;;;;;5072613;28;20056;-71
2022/08/25 09:25:49;;;;;;;4.40;3.10;;;;;;;;;;5071982;28;20044;-72
2022/08/25 09:28:45;;;;;;;3.83;2.53;;;;;;;;;;5084462;28;20055;-71
2022/08/25 09:31:34;;;;;;;7.03;2.67;;;;;;;;;;5091155;28;20097;-72
2022/08/25 09:34:22;;;;;;;3.80;2.55;;;;;;;;;;5091606;28;20440;-72
2022/08/25 09:37:08;;;;;;;8.88;3.33;;;;;;;;;;5089539;28;20429;-72
2022/08/25 09:39:55;;;;;;;6.38;2.60;;;;;;;;;;5089961;28;20397;-72
2022/08/25 09:42:45;;;;;;;6.47;2.40;;;;;;;;;;5086853;28;20131;-72
2022/08/25 09:45:38;;;;;;;7.03;2.20;;;;;;;;;;5071448;28;20063;-72
2022/08/25 09:48:38;;;;;;;4.13;2.42;;;;;;;;;;5072325;28;20052;-71
2022/08/25 09:51:27;;;;;;;7.38;2.92;;;;;;;;;;5072455;28;20079;-72
2022/08/25 09:54:14;;;;;;;5.53;2.45;;;;;;;;;;5071691;28;20482;-70
2022/08/25 09:57:02;;;;;;;4.47;2.10;;;;;;;;;;5070814;28;20689;-72
2022/08/25 09:59:51;;;;;;;5.45;2.22;;;;;;;;;;5050960;28;20040;-72
2022/08/25 10:02:37;;;;;;;5.95;2.50;;;;;;;;;;5057806;28;20076;-73
2022/08/25 10:05:25;;;;;;;5.15;1.90;;;;;;;;;;5088890;28;20474;-71
2022/08/25 10:08:13;;;;;;;5.80;2.45;;;;;;;;;;5066489;28;20044;-70
2022/08/25 10:11:01;;;;;;;6.28;3.08;;;;;;;;;;5084980;28;20082;-71
2022/08/25 10:13:50;;;;;;;5.70;2.40;;;;;;;;;;5090496;28;20214;-71
2022/08/25 10:16:36;;;;;;;10.00;3.03;;;;;;;;;;5072530;28;20040;-71
2022/08/25 10:19:27;;;;;;;3.80;2.53;;;;;;;;;;5085124;28;20048;-72
2022/08/25 10:22:31;;;;;;;3.85;2.20;;;;;;;;;;5089295;28;20098;-72
2022/08/25 10:25:20;;;;;;;2.90;2.20;;;;;;;;;;5078342;28;20147;-72
2022/08/25 10:28:12;;;;;;;4.00;2.50;;;;;;;;;;5058549;28;20044;-72
2022/08/25 10:30:59;;;;;;;5.03;2.63;;;;;;;;;;5082594;28;20270;-71
2022/08/25 10:33:50;;;;;;;4.25;2.15;;;;;;;;;;5065224;28;20063;-72
2022/08/25 10:36:40;;;;;;;5.35;2.13;;;;;;;;;;5071026;28;20524;-71
2022/08/25 10:39:39;;;;;;;4.63;2.85;;;;;;;;;;5071651;28;20079;-71
2022/08/25 10:42:42;;;;;;;3.53;2.28;;;;;;;;;;5088533;28;20040;-71
2022/08/25 10:45:41;;;;;;;6.50;2.65;;;;;;;;;;5071795;28;20044;-71
2022/08/25 10:48:39;;;;;;;7.65;2.42;;;;;;;;;;5057461;28;20386;-72
2022/08/25 10:51:45;;;;;;;5.88;2.30;;;;;;;;;;5050238;28;20128;-71
2022/08/25 10:54:46;;;;;;;4.63;2.40;;;;;;;;;;5059012;28;20047;-71
2022/08/25 10:57:33;;;;;;;4.03;2.65;;;;;;;;;;5054567;28;20040;-70
2022/08/25 11:00:23;;;;;;;3.42;2.45;;;;;;;;;;5050694;28;20048;-71
2022/08/25 11:03:30;;;;;;;3.85;2.45;;;;;;;;;;5044339;28;20545;-70
2022/08/25 11:06:20;;;;;;;8.15;2.90;;;;;;;;;;5050659;28;20051;-70
2022/08/25 11:09:12;;;;;;;4.55;2.45;;;;;;;;;;5062042;28;20041;-70
2022/08/25 11:12:01;;;;;;;6.78;2.88;;;;;;;;;;5047417;28;20099;-71
2022/08/25 11:15:17;;;;;;;5.97;2.65;;;;;;;;;;5051134;28;20044;-71
2022/08/25 11:18:06;;;;;;;7.25;3.03;;;;;;;;;;5061654;28;20048;-70
2022/08/25 11:21:01;;;;;;;4.50;2.15;;;;;;;;;;5049665;28;20052;-71
2022/08/25 11:24:00;;;;;;;7.47;2.50;;;;;;;;;;5048755;28;20427;-71
2022/08/25 11:26:51;;;;;;;4.05;2.45;;;;;;;;;;5044524;28;20127;-70
2022/08/25 11:29:38;;;;;;;4.25;2.63;;;;;;;;;;5066524;28;20047;-71
2022/08/25 11:32:25;;;;;;;5.50;2.63;;;;;;;;;;5067921;28;20493;-70
2022/08/25 11:35:13;;;;;;;5.80;2.40;;;23.60;99.90;;;;;;5050961;28;20040;-70
2022/08/25 11:38:18;;;;;;;6.00;2.63;;;29.50;65.10;;;;;;5060605;28;20548;-70
2022/08/25 11:41:22;;;;;;;4.53;2.60;;;29.30;63.30;;;;;;5043298;28;20041;-70
2022/08/25 11:44:18;;;;;;;5.35;2.47;;;29.40;62.90;;;;;;5050684;28;20600;-70
2022/08/25 11:47:14;;;;;;;4.05;2.30;;;29.40;63.90;;;;;;5050226;28;20503;-70
2022/08/25 11:50:23;;;;;;;3.95;1.98;;;29.40;62.70;;;;;;5063939;28;20298;-70
2022/08/25 11:53:25;;;;;;;6.97;2.83;;;29.40;62.60;;;;;;5087972;28;20059;-70
2022/08/25 11:56:31;;;;;;;3.15;2.08;;;29.40;62.00;;;;;;5087036;28;20448;-70
2022/08/25 11:59:48;;;;;;;3.97;2.40;;;29.50;61.90;;;;;;5065380;28;20432;-71
2022/08/25 12:02:46;;;;;;;7.25;2.35;;;29.50;62.10;;;;;;5055374;28;20055;-70
2022/08/25 12:06:12;;;;;;;4.63;2.80;;;29.60;61.30;;;;;;5069508;28;20059;-71
2022/08/25 12:08:58;;;;;;;3.63;1.88;;;29.60;61.40;;;;;;5085185;28;20040;-70
2022/08/25 12:11:52;;;;;;;4.47;2.35;;;29.70;62.30;;;;;;5066061;28;20502;-71
2022/08/25 12:14:42;;;;;;;4.15;2.45;;;29.70;61.70;;;;;;5066590;28;20044;-70
2022/08/25 12:17:38;;;;;;;3.53;2.28;;;29.70;60.80;;;;;;5065973;28;20052;-71
2022/08/25 12:20:55;;;;;;;5.35;3.03;;;29.80;60.50;;;;;;5087307;28;20520;-70
2022/08/25 12:24:07;;;;;;;6.05;2.47;;;29.90;59.60;;;;;;5039865;28;20497;-70
2022/08/25 12:26:57;;;;;;;7.18;2.60;;;29.90;60.00;;;;;;5088272;28;20052;-71
2022/08/25 12:29:59;;;;;;;4.60;2.80;;;29.90;60.00;;;;;;5067619;28;20059;-70
2022/08/25 12:33:03;;;;;;;4.43;2.40;;;30.00;58.50;;;;;;5069905;28;20040;-70
2022/08/25 12:35:59;;;;;;;7.05;2.30;;;30.00;59.30;;;;;;5080324;28;20060;-70
2022/08/25 12:38:47;;;;;;;7.20;2.65;;;;;;;;;;5062284;28;20154;-71
2022/08/25 12:41:35;;;;;;;4.82;2.28;;;;;;;;;;5064227;28;20508;-71
2022/08/25 12:44:46;;;;;;;6.53;2.45;;;;;;;;;;5089395;28;20044;-70
2022/08/25 12:47:32;;;;;;;3.45;2.55;;;;;;;;;;5089086;28;20089;-71
2022/08/25 12:50:25;;;;;;;3.00;2.20;;;;;;;;;;5069146;28;20091;-70
2022/08/25 12:53:11;;;;;;;7.07;2.55;;;;;;;;;;5068619;28;20183;-71
2022/08/25 12:56:17;;;;;;;3.50;2.35;;;;;;;;;;5088058;28;20116;-71
2022/08/25 12:59:13;;;;;;;3.42;2.28;;;;;;;;;;5083831;28;20444;-70
2022/08/25 13:02:18;;;;;;;5.53;2.33;;;;;;;;;;5086529;28;20112;-70
2022/08/25 13:05:04;;;;;;;3.90;2.45;;;;;;;;;;5088092;28;20039;-70
2022/08/25 13:07:54;;;;;;;2.90;2.40;;;;;;;;;;5068376;28;20138;-71
2022/08/25 13:10:49;;;;;;;4.95;2.63;;;;;;;;;;5089427;28;20044;-71
2022/08/25 13:13:46;;;;;;;4.47;2.45;;;;;;;;;;5056266;28;20055;-71
2022/08/25 13:16:33;;;;;;;5.78;2.75;;;;;;;;;;5071191;28;20044;-71
2022/08/25 13:19:20;;;;;;;2.88;2.20;;;;;;;;;;5061267;28;20041;-70
2022/08/25 13:22:13;;;;;;;3.88;2.53;;;;;;;;;;5079847;28;20131;-71
2022/08/25 13:24:59;;;;;;;4.30;2.50;;;;;;;;;;5072069;28;20045;-71
2022/08/25 13:27:50;;;;;;;3.25;2.38;;;;;;;;;;5066587;28;20048;-70
2022/08/25 13:30:38;;;;;;;4.80;2.00;;;;;;;;;;5078401;28;20157;-71
2022/08/25 13:33:24;;;;;;;6.65;2.35;;;;;;;;;;5056852;28;20043;-70
2022/08/25 13:39:24;;;;;;;4.95;2.67;;;;;;;;;;5075477;28;20442;-71
2022/08/25 13:42:14;;;;;;;3.25;2.13;;;;;;;;;;5078512;28;20066;-71
2022/08/25 13:45:00;;;;;;;3.35;2.15;;;;;;;;;;5086367;28;20135;-71
2022/08/25 13:47:47;;;;;;;2.92;2.25;;;;;;;;;;5075499;28;20050;-71
2022/08/25 13:50:38;;;;;;;4.25;2.60;;;;;;;;;;5067586;28;20057;-71
2022/08/25 13:53:26;;;;;;;6.13;2.80;;;;;;;;;;5089003;28;20059;-71
2022/08/25 13:56:22;;;;;;;14.02;3.17;;;;;;;;;;5088122;28;20067;-71
2022/08/25 13:59:20;;;;;;;3.67;2.38;;;;;;;;;;5090369;28;20044;-72
2022/08/25 14:02:07;;;;;;;2.70;2.20;;;;;;;;;;5090123;28;20047;-72
2022/08/25 14:04:53;;;;;;;6.25;3.03;;;;;;;;;;5058922;28;20280;-72
2022/08/25 14:07:40;;;;;;;4.85;3.08;;;;;;;;;;5066181;28;20405;-72
2022/08/25 14:10:40;;;;;;;5.88;2.53;;;;;;;;;;5071227;28;20060;-72
2022/08/25 14:13:27;;;;;;;5.45;2.38;;;;;;;;;;5082981;28;20048;-72
2022/08/25 14:16:18;;;;;;;2.80;2.50;;;;;;;;;;5068745;28;20994;-72
2022/08/25 14:19:04;;;;;;;5.13;2.58;;;;;;;;;;5075053;28;20048;-72
2022/08/25 14:21:52;;;;;;;3.80;2.13;;;;;;;;;;5065640;28;20051;-72
2022/08/25 14:24:38;;;;;;;4.93;2.28;;;;;;;;;;5086429;28;20118;-72
2022/08/25 14:27:25;;;;;;;3.33;2.20;;;;;;;;;;5071823;28;20036;-72
2022/08/25 14:30:12;;;;;;;4.32;1.80;;;;;;;;;;5081033;28;20450;-72
2022/08/25 14:32:59;;;;;;;3.63;2.63;;;;;;;;;;5077358;28;20044;-72
2022/08/25 14:35:47;;;;;;;3.97;2.03;;;;;;;;;;5071944;28;20052;-72
2022/08/25 14:38:37;;;;;;;2.70;2.00;;;;;;;;;;5076358;28;20040;-72
2022/08/25 14:41:25;;;;;;;5.18;2.63;;;;;;;;;;5060518;28;20064;-72
2022/08/25 14:44:12;;;;;;;4.80;2.63;;;;;;;;;;5075350;28;20050;-72
2022/08/25 14:47:00;;;;;;;4.50;2.50;;;;;;;;;;5055848;28;20048;-72
2022/08/25 14:49:48;;;;;;;3.35;2.17;;;;;;;;;;5071201;28;20055;-72
2022/08/25 14:52:34;;;;;;;4.88;2.60;;;;;;;;;;5054411;28;20070;-72
2022/08/25 14:55:21;;;;;;;4.15;2.65;;;;;;;;;;5062602;28;20078;-72
2022/08/25 14:58:07;;;;;;;4.18;2.25;;;;;;;;;;5069132;28;20063;-73
2022/08/25 15:00:56;;;;;;;4.63;2.42;;;;;;;;;;5072819;28;20048;-73
2022/08/25 15:03:44;;;;;;;5.45;2.38;;;;;;;;;;5041485;28;20449;-73
2022/08/25 15:06:31;;;;;;;8.45;2.55;;;;;;;;;;5077598;28;20051;-73
2022/08/25 15:09:17;;;;;;;6.57;2.80;;;;;;;;;;5053856;28;20052;-72
2022/08/25 15:12:04;;;;;;;4.00;2.70;;;;;;;;;;5069568;28;20059;-73
2022/08/25 15:14:50;;;;;;;4.70;2.42;;;;;;;;;;5072336;28;20088;-72
2022/08/25 15:17:38;;;;;;;3.28;2.38;;;;;;;;;;5057804;28;20040;-73
2022/08/25 15:20:25;;;;;;;4.75;2.58;;;;;;;;;;5070135;28;20085;-73
2022/08/25 15:23:11;;;;;;;2.83;2.25;;;;;;;;;;5061728;28;20782;-71
2022/08/25 15:25:58;;;;;;;5.50;2.28;;;;;;;;;;5077027;28;20064;-71
2022/08/25 15:28:48;;;;;;;3.90;2.20;;;;;;;;;;5052141;28;20404;-72
2022/08/25 15:31:34;;;;;;;3.33;1.67;;;;;;;;;;5084843;28;20507;-72
2022/08/25 15:34:21;;;;;;;3.13;2.00;;;;;;;;;;5085685;28;20083;-72
2022/08/25 15:37:09;;;;;;;3.38;2.35;;;;;;;;;;5059456;28;20522;-71
2022/08/25 15:39:56;;;;;;;3.20;2.10;;;;;;;;;;5078455;28;20040;-72
2022/08/25 15:42:42;;;;;;;3.60;2.53;;;;;;;;;;5084017;28;20048;-72
2022/08/25 15:45:28;;;;;;;4.00;2.10;;;;;;;;;;5084901;28;20352;-72
2022/08/25 15:48:15;;;;;;;3.63;2.17;;;;;;;;;;5081722;28;20036;-72
2022/08/25 15:51:01;;;;;;;3.05;2.00;;;;;;;;;;5073245;28;20421;-72
2022/08/25 15:53:48;;;;;;;2.92;1.95;;;;;;;;;;5069399;28;20514;-72
2022/08/25 15:56:34;;;;;;;3.22;1.75;;;;;;;;;;5069629;28;20051;-72
2022/08/25 15:59:21;;;;;;;2.75;1.90;;;;;;;;;;5057285;28;20043;-72
2022/08/25 16:02:07;;;;;;;5.88;2.50;;;;;;;;;;5072617;28;20486;-72
2022/08/25 16:04:54;;;;;;;4.55;1.88;;;;;;;;;;5050720;28;20536;-72
2022/08/25 16:07:40;;;;;;;4.22;2.35;;;;;;;;;;5057481;28;20075;-72
2022/08/25 16:10:27;;;;;;;2.63;1.95;;;;;;;;;;5051752;28;20048;-72
2022/08/25 16:13:14;;;;;;;4.00;2.08;;;;;;;;;;5051442;28;20076;-72
2022/08/25 16:16:01;;;;;;;4.22;1.95;;;;;;;;;;5071624;28;20485;-73
2022/08/25 16:18:47;;;;;;;3.63;2.13;;;;;;;;;;5063161;28;20047;-72
2022/08/25 16:21:35;;;;;;;4.82;2.20;;;;;;;;;;5066452;28;20098;-72
2022/08/25 16:24:22;;;;;;;4.30;2.20;;;;;;;;;;5071622;28;20421;-72
2022/08/25 16:27:08;;;;;;;3.58;2.00;;;;;;;;;;5086417;28;20052;-72
2022/08/25 16:29:55;;;;;;;3.47;2.03;;;;;;;;;;5081510;28;20083;-72
2022/08/25 16:32:41;;;;;;;2.78;2.10;;;;;;;;;;5088780;28;20561;-73
2022/08/25 16:35:28;;;;;;;3.63;2.30;;;;;;;;;;5045405;28;20048;-72
2022/08/25 16:38:14;;;;;;;2.92;2.17;;;;;;;;;;5082704;28;20036;-72
2022/08/25 16:41:04;;;;;;;2.78;2.08;;;;;;;;;;5086484;28;20048;-72
2022/08/25 16:43:51;;;;;;;4.18;2.67;;;;;;;;;;5070843;28;20098;-73
2022/08/25 16:46:37;;;;;;;4.05;2.40;;;;;;;;;;5087482;28;20540;-72
2022/08/25 16:49:24;;;;;;;3.13;1.63;;;;;;;;;;5067679;28;20513;-72
2022/08/25 16:55:15;;;;;;;3.83;2.28;;;;;;;;;;5075099;28;20059;-72
2022/08/25 16:58:02;;;;;;;4.47;3.08;;;;;;;;;;5077618;28;20048;-72
2022/08/25 17:00:48;;;;;;;4.25;2.00;;;;;;;;;;5066316;28;20430;-72
2022/08/25 17:03:35;;;;;;;3.97;2.70;;;;;;;;;;5067868;28;20419;-72